Latest Coastal Weather Observations for Holmes Reef

IDQ60701

Issued at 9:01 am EST Thursday 18 December 2014 (issued every 10 minutes, with the page automatically refreshed every 10 minutes)

About coastal observations | Map of coastal stations | Coastal observations for QLD | Marine services | Other Formats
Station Details ID: 200732 Name: HOLMES REEF Lat: -16.47 Lon: 147.87 Height: 1.9 m
Data from the previous 72 hours. | See also: Recent months at Holmes Reef
Date/Time
EST
Temp

°C
Wind Pressure Rain
since 9am
mm
Weather Cloud Vis
km
Sea
Height
m
Swell
Dir
 
Speed
knots
Gust
knots
hPa Trend Height
m
Period
s
Dir
18/09:00am 27.6 ENE 10 13 1012.2 - - - - - - - - -
18/08:30am 28.1 NE 8 9 1012.4 - - - - - - - - -
18/08:15am 27.8 ENE 9 - 1012.0 - - - - - - - - -
18/08:00am 27.8 NE 9 13 1012.2 - - - - - - - - -
18/07:30am 27.8 ENE 9 11 1012.1 - - - - - - - - -
18/07:15am 27.9 ENE 8 - 1011.7 - - - - - - - - -
18/07:00am 27.7 ENE 8 11 1012.0 - - - - - - - - -
18/06:30am 27.7 ENE 9 11 1011.6 - - - - - - - - -
18/06:15am 27.4 ENE 10 - 1011.1 - - - - - - - - -
18/06:00am 27.3 NE 10 13 1011.1 - - - - - - - - -
18/05:30am 27.0 ENE 10 12 1010.7 - - - - - - - - -
18/05:15am 27.0 ENE 10 - 1010.1 - - - - - - - - -
18/05:00am 27.0 ENE 9 11 1010.1 - - - - - - - - -
18/04:30am 27.1 ENE 8 11 1009.5 - - - - - - - - -
18/04:15am 27.1 ENE 8 - 1008.9 - - - - - - - - -
18/04:00am 27.1 ENE 10 12 1009.2 - - - - - - - - -
18/03:30am 27.0 NE 9 11 1009.1 - - - - - - - - -
18/03:15am 27.1 NE 10 - 1008.8 - - - - - - - - -
18/03:00am 27.0 NE 10 12 1009.1 - - - - - - - - -
18/02:30am 27.1 NE 10 11 1009.1 - - - - - - - - -
18/02:15am 27.2 NE 10 - 1008.7 - - - - - - - - -
18/02:00am 27.2 NE 10 13 1009.0 - - - - - - - - -
18/01:30am 27.2 NE 10 13 1009.1 - - - - - - - - -
18/01:15am 27.2 NE 10 - 1009.1 - - - - - - - - -
18/01:00am 27.3 ENE 9 11 1009.6 - - - - - - - - -
18/12:30am 27.4 NE 9 11 1010.0 - - - - - - - - -
18/12:15am 27.5 NE 10 9 1009.9 - - - - - - - - -
18/12:00am 27.6 ENE 9 11 1010.5 - - - - - - - - -
 
Date/Time
EST
Temp

°C
Wind Pressure Rain
since 9am
mm
Weather Cloud Vis
km
Sea
Height
m
Swell
Dir
 
Speed
knots
Gust
knots
hPa Trend Height
m
Period
s
Dir
17/11:30pm 27.7 ENE 8 9 1011.1 - - - - - - - - -
17/11:15pm 27.6 ENE 8 - 1010.8 - - - - - - - - -
17/11:00pm 27.8 ENE 8 11 1011.1 - - - - - - - - -
17/10:30pm 27.8 ENE 11 13 1011.0 - - - - - - - - -
17/10:15pm 27.7 ENE 11 - 1010.4 - - - - - - - - -
17/10:00pm 27.7 E 10 13 1010.4 - - - - - - - - -
17/09:30pm 27.7 ENE 9 11 1009.9 - - - - - - - - -
17/09:15pm 27.8 ENE 10 - 1009.4 - - - - - - - - -
17/09:00pm 27.7 ENE 10 13 1009.6 - - - - - - - - -
17/08:30pm 27.7 ENE 9 12 1009.4 - - - - - - - - -
17/08:15pm 27.8 ENE 8 - 1009.0 - - - - - - - - -
17/08:00pm 27.8 ENE 9 11 1009.0 - - - - - - - - -
17/07:30pm 27.9 E 9 11 1008.9 - - - - - - - - -
17/07:15pm 27.8 ENE 8 - 1008.4 - - - - - - - - -
17/07:00pm 27.8 ENE 7 9 1008.7 - - - - - - - - -
17/06:30pm 27.9 ENE 6 8 1008.5 - - - - - - - - -
17/06:15pm 28.1 E 6 - 1008.1 - - - - - - - - -
17/06:00pm 28.2 ENE 6 8 1008.2 - - - - - - - - -
17/05:30pm 28.0 E 5 6 1008.3 - - - - - - - - -
17/05:15pm 28.1 NE 5 - 1008.0 - - - - - - - - -
17/05:00pm 28.1 ENE 5 7 1008.2 - - - - - - - - -
17/04:30pm 28.1 ENE 5 7 1008.3 - - - - - - - - -
17/04:15pm 28.1 NE 5 - 1008.0 - - - - - - - - -
17/04:00pm 28.1 ENE 4 6 1008.2 - - - - - - - - -
17/03:30pm 28.5 NNE 5 6 1008.2 - - - - - - - - -
17/03:15pm 28.3 NNE 5 - 1007.9 - - - - - - - - -
17/03:00pm 28.1 NNE 6 8 1008.3 - - - - - - - - -
17/02:30pm 28.1 NE 5 7 1008.5 - - - - - - - - -
17/02:15pm 28.2 NE 5 - 1008.3 - - - - - - - - -
17/02:00pm 28.1 NE 6 7 1008.9 - - - - - - - - -
17/01:30pm 28.0 ENE 6 8 1009.0 - - - - - - - - -
17/01:15pm 27.9 ENE 6 - 1008.8 - - - - - - - - -
17/01:00pm 27.9 ENE 5 7 1009.3 - - - - - - - - -
17/12:30pm 28.0 NE 5 6 1009.7 - - - - - - - - -
17/12:15pm 28.0 ENE 4 - 1009.6 - - - - - - - - -
17/12:00pm 28.0 ENE 4 6 1010.1 - - - - - - - - -
17/11:30am 27.9 E 6 8 1010.2 - - - - - - - - -
17/11:15am 27.8 ENE 5 - 1010.1 - - - - - - - - -
17/11:00am 27.9 NE 5 7 1010.5 - - - - - - - - -
17/10:30am 28.0 NE 6 8 1010.6 - - - - - - - - -
17/10:15am 28.1 ENE 7 - 1010.2 - - - - - - - - -
17/10:00am 28.0 ENE 7 9 1010.5 - - - - - - - - -
17/09:30am 27.7 ENE 8 9 1010.5 - - - - - - - - -
17/09:15am 27.7 ENE 8 - 1010.0 - - - - - - - - -
17/09:00am 27.8 ENE 8 9 1010.2 - - - - - - - - -
17/08:30am 27.8 ENE 9 11 1010.0 - - - - - - - - -
17/08:15am 27.8 ENE 8 - 1009.7 - - - - - - - - -
17/08:00am 27.7 E 8 11 1010.0 - - - - - - - - -
17/07:30am 27.8 ENE 9 12 1009.9 - - - - - - - - -
17/07:15am 27.8 ENE 10 - 1009.4 - - - - - - - - -
17/07:00am 27.7 E 10 12 1009.6 - - - - - - - - -
17/06:30am 27.5 ENE 11 15 1009.3 - - - - - - - - -
17/06:15am 27.4 E 11 - 1008.8 - - - - - - - - -
17/06:00am 27.4 E 12 14 1008.9 - - - - - - - - -
17/05:30am 27.1 ENE 11 13 1008.6 - - - - - - - - -
17/05:15am 27.2 E 12 - 1008.1 - - - - - - - - -
17/05:00am 27.2 ENE 12 14 1008.2 - - - - - - - - -
17/04:30am 27.2 ENE 11 14 1007.9 - - - - - - - - -
17/04:15am 27.2 ENE 11 - 1007.5 - - - - - - - - -
17/04:00am 27.2 ENE 11 12 1007.6 - - - - - - - - -
17/03:30am 27.2 ENE 11 14 1007.4 - - - - - - - - -
17/03:15am 27.4 ENE 11 - 1007.2 - - - - - - - - -
17/03:00am 27.2 ENE 12 14 1007.4 - - - - - - - - -
17/02:30am 27.4 ENE 12 15 1007.6 - - - - - - - - -
17/02:15am 27.4 ENE 12 - 1007.4 - - - - - - - - -
17/02:00am 27.4 ENE 12 14 1007.8 - - - - - - - - -
17/01:30am 27.7 ENE 13 17 1008.2 - - - - - - - - -
17/01:15am 27.8 ENE 13 - 1008.0 - - - - - - - - -
17/01:00am 27.7 ENE 13 14 1008.4 - - - - - - - - -
17/12:30am 27.8 ENE 12 15 1008.9 - - - - - - - - -
17/12:15am 27.9 ENE 13 - 1008.7 - - - - - - - - -
17/12:00am 28.0 ENE 13 15 1009.2 - - - - - - - - -
 
Date/Time
EST
Temp

°C
Wind Pressure Rain
since 9am
mm
Weather Cloud Vis
km
Sea
Height
m
Swell
Dir
 
Speed
knots
Gust
knots
hPa Trend Height
m
Period
s
Dir
16/11:30pm 28.0 ENE 13 15 1009.4 - - - - - - - - -
16/11:15pm 28.2 ENE 13 - 1009.2 - - - - - - - - -
16/11:00pm 28.5 E 14 16 1009.6 - - - - - - - - -
16/10:30pm 28.2 E 13 15 1009.7 - - - - - - - - -
16/10:15pm 28.1 E 12 - 1009.3 - - - - - - - - -
16/10:00pm 28.2 E 12 14 1009.6 - - - - - - - - -
16/09:30pm 28.0 E 11 13 1009.5 - - - - - - - - -
16/09:15pm 28.1 E 11 - 1009.1 - - - - - - - - -
16/09:00pm 28.0 E 10 13 1009.4 - - - - - - - - -
16/08:30pm 28.1 E 10 12 1009.2 - - - - - - - - -
16/08:15pm 28.1 E 10 - 1008.7 - - - - - - - - -
16/08:00pm 28.2 E 10 11 1008.9 - - - - - - - - -
16/07:30pm 28.3 E 9 11 1009.0 - - - - - - - - -
16/07:15pm 28.3 E 9 - 1008.7 - - - - - - - - -
16/07:00pm 28.2 E 9 10 1008.9 - - - - - - - - -
16/06:30pm 28.4 E 9 10 1008.9 - - - - - - - - -
16/06:15pm 28.4 ESE 9 - 1008.5 - - - - - - - - -
16/06:00pm 28.5 ESE 8 9 1008.6 - - - - - - - - -
16/05:30pm 28.4 ESE 8 10 1008.6 - - - - - - - - -
16/05:15pm 28.4 ESE 8 - 1008.4 - - - - - - - - -
16/05:00pm 28.4 ESE 8 9 1008.6 - - - - - - - - -
16/04:30pm 28.4 ESE 7 8 1008.7 - - - - - - - - -
16/04:15pm 28.4 SE 7 - 1008.3 - - - - - - - - -
16/04:00pm 28.5 SE 6 7 1008.7 - - - - - - - - -
16/03:30pm 28.3 SE 6 8 1008.7 - - - - - - - - -
16/03:15pm 28.5 SE 6 - 1008.4 - - - - - - - - -
16/03:00pm 28.4 ESE 5 7 1008.8 - - - - - - - - -
16/02:30pm 28.5 ESE 5 6 1009.0 - - - - - - - - -
16/02:15pm 28.5 SE 5 - 1009.0 - - - - - - - - -
16/02:00pm 28.3 ESE 5 6 1009.4 - - - - - - - - -
16/01:30pm 28.4 ESE 5 6 1009.6 - - - - - - - - -
16/01:15pm 28.2 ESE 5 - 1009.6 - - - - - - - - -
16/01:00pm 28.3 ESE 6 8 1010.2 - - - - - - - - -
16/12:30pm 28.4 ESE 5 6 1010.4 - - - - - - - - -
16/12:15pm 28.5 ESE 5 - 1010.3 - - - - - - - - -
16/12:00pm 28.6 ESE 5 6 1010.8 - - - - - - - - -
16/11:30am 28.6 E 4 5 1011.1 - - - - - - - - -
16/11:15am 28.6 E 4 - 1010.9 - - - - - - - - -
16/11:00am 28.9 ESE 4 5 1011.4 - - - - - - - - -
16/10:30am 29.0 ESE 4 6 1011.6 - - - - - - - - -
16/10:15am 28.8 E 5 - 1011.5 - - - - - - - - -
16/10:00am 29.3 E 3 5 1011.9 - - - - - - - - -
16/09:30am 28.8 E 4 6 1012.1 - - - - - - - - -
16/09:15am 28.6 ENE 5 - 1011.7 - - - - - - - - -
16/09:00am 28.7 ENE 6 7 1012.0 - - - - - - - - -
16/08:30am 28.8 ENE 5 6 1011.9 - - - - - - - - -
16/08:15am 28.7 ENE 6 - 1011.5 - - - - - - - - -
16/08:00am 28.4 ENE 7 8 1011.6 - - - - - - - - -
16/07:30am 28.3 ENE 8 9 1011.4 - - - - - - - - -
16/07:15am 28.2 ENE 9 - 1010.9 - - - - - - - - -
16/07:00am 28.2 E 9 11 1011.0 - - - - - - - - -
16/06:30am 28.0 ENE 9 11 1010.5 - - - - - - - - -
16/06:15am 27.8 ENE 10 - 1009.9 - - - - - - - - -
16/06:00am 27.6 E 10 12 1010.0 - - - - - - - - -
16/05:30am 27.5 E 11 13 1009.5 - - - - - - - - -
16/05:15am 27.4 E 12 - 1008.8 - - - - - - - - -
16/05:00am 27.5 E 12 13 1008.9 - - - - - - - - -
16/04:30am 27.5 E 12 13 1008.5 - - - - - - - - -
16/04:15am 27.5 E 11 - 1008.0 - - - - - - - - -
16/04:00am 27.5 E 11 12 1008.2 - - - - - - - - -
16/03:30am 27.6 E 10 11 1008.2 - - - - - - - - -
16/03:15am 27.5 E 11 - 1007.9 - - - - - - - - -
16/03:00am 27.6 E 11 12 1008.2 - - - - - - - - -
16/02:30am 27.6 E 11 13 1008.3 - - - - - - - - -
16/02:15am 27.6 E 11 - 1008.0 - - - - - - - - -
16/02:00am 27.6 E 11 13 1008.4 - - - - - - - - -
16/01:30am 27.8 ENE 12 14 1008.5 - - - - - - - - -
16/01:15am 27.7 E 11 - 1008.4 - - - - - - - - -
16/01:00am 27.7 E 12 14 1009.0 - - - - - - - - -
16/12:30am 27.7 ENE 13 14 1009.3 - - - - - - - - -
16/12:15am 27.8 ENE 12 - 1009.1 - - - - - - - - -
16/12:00am 27.7 ENE 13 15 1009.7 - - - - - - - - -
 
Date/Time
EST
Temp

°C
Wind Pressure Rain
since 9am
mm
Weather Cloud Vis
km
Sea
Height
m
Swell
Dir
 
Speed
knots
Gust
knots
hPa Trend Height
m
Period
s
Dir
15/11:30pm 27.9 ENE 13 15 1010.0 - - - - - - - - -
15/11:15pm 28.0 E 12 - 1009.9 - - - - - - - - -
15/11:00pm 27.9 ENE 12 15 1010.4 - - - - - - - - -
15/10:30pm 28.0 ENE 13 14 1010.4 - - - - - - - - -
15/10:15pm 28.1 ENE 12 - 1010.2 - - - - - - - - -
15/10:00pm 28.0 ENE 13 14 1010.5 - - - - - - - - -
15/09:30pm 28.1 ENE 14 15 1010.4 - - - - - - - - -
15/09:15pm 28.0 ENE 14 - 1010.1 - - - - - - - - -
15/09:00pm 28.0 ENE 14 15 1010.5 - - - - - - - - -
15/08:30pm 28.0 E 12 14 1010.4 - - - - - - - - -
15/08:15pm 28.0 E 12 - 1009.9 - - - - - - - - -
15/08:00pm 28.0 E 12 14 1009.9 - - - - - - - - -
15/07:30pm 28.0 E 13 15 1009.3 - - - - - - - - -
15/07:15pm 28.1 E 13 - 1009.1 - - - - - - - - -
15/07:00pm 28.1 E 12 14 1009.3 - - - - - - - - -
15/06:30pm 28.1 E 11 13 1009.1 - - - - - - - - -
15/06:15pm 28.1 E 11 - 1008.8 - - - - - - - - -
15/06:00pm 28.2 E 10 11 1009.1 - - - - - - - - -
15/05:30pm 28.2 E 10 12 1008.8 - - - - - - - - -
15/05:15pm 28.2 E 9 - 1008.4 - - - - - - - - -
15/05:00pm 28.2 ESE 9 11 1008.4 - - - - - - - - -
15/04:30pm 28.2 ESE 9 11 1007.9 - - - - - - - - -
15/04:15pm 28.3 ESE 8 - 1007.5 - - - - - - - - -
15/04:00pm 28.2 E 8 10 1007.7 - - - - - - - - -
15/03:30pm 28.3 ESE 8 9 1008.0 - - - - - - - - -
15/03:15pm 28.3 ESE 8 - 1007.6 - - - - - - - - -
15/03:00pm 28.3 ESE 7 9 1007.9 - - - - - - - - -
15/02:30pm 28.4 E 7 9 1008.1 - - - - - - - - -
15/02:15pm 28.2 E 6 - 1007.9 - - - - - - - - -
15/02:00pm 28.2 E 6 7 1008.5 - - - - - - - - -
15/01:30pm 28.2 E 7 8 1009.2 - - - - - - - - -
15/01:15pm 28.1 E 6 - 1009.0 - - - - - - - - -
15/01:00pm 28.3 E 6 7 1009.5 - - - - - - - - -
15/12:30pm 28.1 E 6 7 1010.2 - - - - - - - - -
15/12:15pm 28.2 E 6 - 1010.1 - - - - - - - - -
15/12:00pm 28.4 E 6 7 1010.5 - - - - - - - - -
15/11:30am 28.4 ESE 7 8 1010.8 - - - - - - - - -
15/11:15am 28.2 E 6 - 1010.5 - - - - - - - - -
15/11:00am 28.2 E 7 8 1010.8 - - - - - - - - -
15/10:30am 28.5 E 7 8 1010.8 - - - - - - - - -
15/10:15am 28.3 E 8 - 1010.4 - - - - - - - - -
15/10:00am 28.5 E 7 9 1010.7 - - - - - - - - -
15/09:30am 28.3 ESE 8 9 1010.7 - - - - - - - - -
15/09:15am 28.5 E 7 - 1010.4 - - - - - - - - -

Other Formats:

Comma delimited format used in spreadsheet applications
http://www.bom.gov.au/fwo/IDQ60701/IDQ60701.94289.axf

JavaScript Object Notation format (JSON) in row-major order
http://www.bom.gov.au/fwo/IDQ60701/IDQ60701.94289.json